createdAt,value
2022-08-07T00:13:52.777Z,1.10
2022-08-07T00:20:52.643Z,1.30
2022-08-07T00:38:31.580Z,1.10
2022-08-07T02:05:43.402Z,1.10
2022-08-07T02:09:51.945Z,1.60
2022-08-07T02:12:38.457Z,1.20
2022-08-07T02:21:09.477Z,1.50
2022-08-07T05:14:56.348Z,1.20
2022-08-07T05:20:48.116Z,1.00
2022-08-07T05:28:16.942Z,1.20
2022-08-07T05:34:40.150Z,0.87
2022-08-07T05:38:09.074Z,0.93
2022-08-07T05:40:51.334Z,1.17
2022-08-07T05:47:38.692Z,1.10
2022-08-07T05:54:09.727Z,1.00
2022-08-07T05:57:01.163Z,0.80
2022-08-07T06:00:21.487Z,0.80
2022-08-07T06:03:56.573Z,0.80
2022-08-07T06:08:14.976Z,1.00
2022-08-07T06:10:42.693Z,0.90
2022-08-07T06:16:55.870Z,0.93
2022-08-07T06:20:31.935Z,0.80
2022-08-07T06:24:52.528Z,0.80
2022-08-07T06:28:18.181Z,0.90
2022-08-07T06:30:35.935Z,0.93
2022-08-07T06:40:12.988Z,0.93
2022-08-07T06:42:46.641Z,1.20
2022-08-07T06:46:00.140Z,0.80
2022-08-07T06:48:57.496Z,0.90
2022-08-07T06:52:45.369Z,1.43
2022-08-07T06:56:17.839Z,1.07
2022-08-07T07:01:02.943Z,1.13
2022-08-07T07:04:43.568Z,1.00
2022-08-07T07:10:59.051Z,1.03
2022-08-07T07:13:55.985Z,1.00
2022-08-07T07:21:04.150Z,1.30
2022-08-07T07:24:09.661Z,1.40
2022-08-07T07:26:55.240Z,1.10
2022-08-07T07:29:57.124Z,1.27
2022-08-07T07:32:59.925Z,1.30
2022-08-07T07:36:04.819Z,1.27
2022-08-07T07:38:46.213Z,1.20
2022-08-07T07:41:50.317Z,1.50
2022-08-07T07:44:37.562Z,1.40
2022-08-07T07:47:52.052Z,1.30
2022-08-07T07:53:59.749Z,1.40
2022-08-07T07:57:12.175Z,1.37
2022-08-07T08:23:58.601Z,1.30
2022-08-07T08:27:05.933Z,1.77
2022-08-07T08:29:56.662Z,1.20
2022-08-07T08:32:38.649Z,1.73
2022-08-07T08:35:58.811Z,1.60
2022-08-07T08:42:40.348Z,1.50
2022-08-07T08:46:57.368Z,1.60
2022-08-07T08:50:39.652Z,1.50
2022-08-07T08:58:28.566Z,1.83
2022-08-07T09:20:58.483Z,1.70
2022-08-07T09:24:32.969Z,1.70
2022-08-07T09:26:40.839Z,1.30
2022-08-07T09:30:06.696Z,1.47
2022-08-07T09:32:26.377Z,1.70
2022-08-07T09:36:05.149Z,1.60
2022-08-07T09:38:15.108Z,1.30
2022-08-07T09:41:03.529Z,1.53
2022-08-07T09:44:05.813Z,1.27
2022-08-07T09:47:50.442Z,1.30
2022-08-07T09:50:30.170Z,1.20
2022-08-07T09:58:52.977Z,0.93
2022-08-07T10:01:51.354Z,0.87
2022-08-07T10:04:53.429Z,0.80
2022-08-07T10:16:24.839Z,1.00
2022-08-07T10:19:43.563Z,0.80
2022-08-07T10:22:36.862Z,1.00
2022-08-07T10:25:42.940Z,0.80
2022-08-07T10:28:32.010Z,0.80
2022-08-07T10:31:28.230Z,0.80
2022-08-07T10:34:31.740Z,0.70
2022-08-07T10:37:14.569Z,0.80
2022-08-07T10:40:06.192Z,0.70
2022-08-07T10:43:06.219Z,0.97
2022-08-07T10:45:57.170Z,0.80
2022-08-07T10:48:54.589Z,0.67
2022-08-07T10:51:57.547Z,0.77
2022-08-07T10:54:55.161Z,0.70
2022-08-07T10:57:40.955Z,0.80
2022-08-07T11:00:39.466Z,0.60
2022-08-07T11:03:11.192Z,0.60
2022-08-07T11:05:56.138Z,0.70
2022-08-07T11:08:41.365Z,0.70
2022-08-07T11:11:20.173Z,0.80
2022-08-07T11:14:45.968Z,0.80
2022-08-07T11:16:52.753Z,0.70
2022-08-07T11:19:36.936Z,0.70
2022-08-07T11:22:18.914Z,0.80
2022-08-07T11:25:09.942Z,0.77
2022-08-07T11:28:01.727Z,0.80
2022-08-07T11:30:52.295Z,0.60
2022-08-07T11:33:59.212Z,0.73
2022-08-07T11:36:46.738Z,0.80
2022-08-07T11:39:58.994Z,0.80
2022-08-07T11:42:40.002Z,0.52
2022-08-07T11:45:23.630Z,0.67
2022-08-07T11:48:18.303Z,0.80
2022-08-07T11:51:40.816Z,0.80
2022-08-07T11:54:17.751Z,0.70
2022-08-07T12:00:19.566Z,0.80
2022-08-07T12:03:41.639Z,0.60
2022-08-07T12:06:40.020Z,0.90
2022-08-07T12:09:27.132Z,0.70
2022-08-07T12:12:09.597Z,0.70
2022-08-07T12:14:56.370Z,0.60
2022-08-07T12:17:59.318Z,0.50
2022-08-07T12:20:45.383Z,0.80
2022-08-07T12:24:04.870Z,0.63
2022-08-07T12:26:40.754Z,0.68
2022-08-07T12:29:37.172Z,0.70
2022-08-07T12:32:16.706Z,0.70
2022-08-07T12:34:55.930Z,0.85
2022-08-07T12:38:09.227Z,0.80
2022-08-07T12:47:39.741Z,0.50
2022-08-07T12:54:41.815Z,0.80
2022-08-07T12:58:02.278Z,0.75
2022-08-07T13:01:17.295Z,0.77
2022-08-07T13:19:21.821Z,0.80
2022-08-07T13:34:48.638Z,0.60
2022-08-07T13:38:03.537Z,0.90
2022-08-07T14:36:18.552Z,0.60
2022-08-07T14:42:31.414Z,0.60
2022-08-07T15:12:01.161Z,0.70
2022-08-07T15:28:59.504Z,0.70
2022-08-07T15:32:06.648Z,0.45
2022-08-07T15:35:00.270Z,0.68
2022-08-07T15:41:23.552Z,0.70
2022-08-07T15:44:04.157Z,0.75
2022-08-07T15:46:48.598Z,1.00
2022-08-07T16:13:17.445Z,0.80
2022-08-07T16:34:10.387Z,0.73
2022-08-07T16:38:06.586Z,0.70
2022-08-07T16:41:13.880Z,0.80
2022-08-07T16:45:14.939Z,0.60
2022-08-07T16:50:27.887Z,0.60
2022-08-07T16:54:01.913Z,0.90
2022-08-07T16:56:37.664Z,0.60
2022-08-07T17:07:55.796Z,0.60
2022-08-07T17:11:28.425Z,0.80
2022-08-07T17:15:03.249Z,0.80
2022-08-07T17:18:23.758Z,0.73
2022-08-07T17:21:50.569Z,0.50
2022-08-07T17:24:50.357Z,0.70
2022-08-07T17:27:56.028Z,0.70
2022-08-07T17:35:49.811Z,0.80
2022-08-07T17:38:34.268Z,0.70
2022-08-07T17:42:02.859Z,1.90
2022-08-07T17:45:19.634Z,2.57
2022-08-07T17:48:30.804Z,1.40
2022-08-07T17:52:04.185Z,0.90
2022-08-07T17:54:54.068Z,0.70
2022-08-07T17:58:02.611Z,0.83
2022-08-07T18:02:30.575Z,0.97
2022-08-07T18:08:24.386Z,0.70
2022-08-07T18:12:16.165Z,0.80
2022-08-07T18:21:11.032Z,0.70
2022-08-07T18:22:34.674Z,0.60
2022-08-07T18:25:24.029Z,0.70
2022-08-07T18:28:35.295Z,0.60
2022-08-07T18:31:18.767Z,0.80
2022-08-07T18:34:36.992Z,0.70
2022-08-07T18:38:55.690Z,1.00
2022-08-07T18:40:42.434Z,1.00
2022-08-07T18:43:49.726Z,0.80
2022-08-07T18:46:37.035Z,0.70
2022-08-07T18:50:30.572Z,0.77
2022-08-07T18:52:53.699Z,0.60
2022-08-07T19:04:14.617Z,0.57
2022-08-07T19:07:02.929Z,0.90
2022-08-07T19:10:21.949Z,0.90
2022-08-07T19:14:02.311Z,0.90
2022-08-07T19:17:59.054Z,0.70
2022-08-07T19:21:13.935Z,0.63
2022-08-07T19:24:10.434Z,0.80
2022-08-07T19:31:42.201Z,0.70
2022-08-07T22:09:54.037Z,1.23
2022-08-07T22:59:37.894Z,1.10
2022-08-07T23:10:00.490Z,1.00
2022-08-07T23:42:04.050Z,1.30
2022-08-07T23:53:00.853Z,1.40
